createdAt,value
2023-02-23T00:00:28.483Z,88.40
2023-02-23T00:03:01.844Z,88.90
2023-02-23T00:05:35.284Z,89.20
2023-02-23T00:08:02.258Z,89.30
2023-02-23T00:10:32.104Z,89.00
2023-02-23T00:12:59.829Z,88.30
2023-02-23T00:15:27.956Z,87.90
2023-02-23T00:22:07.802Z,87.20
2023-02-23T00:24:36.680Z,86.70
2023-02-23T00:27:21.017Z,86.60
2023-02-23T00:29:49.739Z,86.60
2023-02-23T00:32:20.901Z,87.10
2023-02-23T00:34:51.374Z,87.70
2023-02-23T00:37:19.227Z,87.60
2023-02-23T00:39:48.725Z,87.80
2023-02-23T00:42:16.099Z,87.80
2023-02-23T00:44:43.245Z,88.20
2023-02-23T00:47:10.422Z,88.50
2023-02-23T00:49:37.390Z,88.50
2023-02-23T00:52:05.215Z,89.10
2023-02-23T00:54:57.404Z,89.70
2023-02-23T00:57:24.455Z,89.60
2023-02-23T00:59:51.440Z,89.70
2023-02-23T01:02:18.413Z,89.60
2023-02-23T01:04:45.455Z,89.50
2023-02-23T01:07:13.146Z,89.60
2023-02-23T01:09:40.759Z,89.70
2023-02-23T01:12:08.221Z,89.60
2023-02-23T01:14:37.716Z,89.80
2023-02-23T01:17:04.775Z,90.30
2023-02-23T01:19:34.194Z,90.80
2023-02-23T01:22:03.772Z,90.90
2023-02-23T01:24:31.006Z,91.10
2023-02-23T01:26:57.977Z,91.40
2023-02-23T01:29:24.944Z,91.30
2023-02-23T01:31:52.074Z,91.10
2023-02-23T01:34:21.777Z,91.10
2023-02-23T01:36:48.821Z,90.90
2023-02-23T01:39:18.988Z,90.80
2023-02-23T01:41:46.300Z,90.70
2023-02-23T01:44:15.106Z,90.30
2023-02-23T01:46:45.458Z,90.70
2023-02-23T01:49:20.474Z,91.80
2023-02-23T01:51:52.416Z,92.60
2023-02-23T01:54:24.680Z,93.30
2023-02-23T01:56:58.471Z,94.00
2023-02-23T01:59:34.297Z,94.40
2023-02-23T02:02:01.748Z,94.50
2023-02-23T02:04:33.669Z,94.30
2023-02-23T02:07:03.845Z,94.10
2023-02-23T02:09:37.929Z,94.10
2023-02-23T02:12:08.544Z,94.20
2023-02-23T02:14:36.313Z,94.30
2023-02-23T02:17:05.965Z,94.00
2023-02-23T02:19:45.797Z,93.30
2023-02-23T02:22:50.416Z,92.70
2023-02-23T02:25:45.215Z,92.40
2023-02-23T02:28:27.216Z,91.70
2023-02-23T02:31:03.334Z,91.60
2023-02-23T02:33:37.988Z,91.20
2023-02-23T02:36:34.339Z,91.00
2023-02-23T02:39:24.091Z,90.80
2023-02-23T02:41:56.480Z,91.20
2023-02-23T02:44:42.267Z,91.90
2023-02-23T02:47:16.445Z,92.70
2023-02-23T02:50:09.589Z,93.40
2023-02-23T02:52:55.869Z,94.10
2023-02-23T02:55:27.852Z,94.40
2023-02-23T02:57:59.120Z,94.40
2023-02-23T03:00:56.278Z,94.30
2023-02-23T03:03:57.769Z,94.00
2023-02-23T03:06:57.592Z,93.30
2023-02-23T03:09:57.563Z,92.60
2023-02-23T03:13:05.581Z,92.10
2023-02-23T03:16:32.309Z,92.10
2023-02-23T03:19:20.681Z,92.30
2023-02-23T03:22:16.420Z,92.20
2023-02-23T03:25:30.458Z,92.20
2023-02-23T03:28:17.231Z,92.40
2023-02-23T03:31:08.601Z,92.30
2023-02-23T03:34:04.552Z,92.10
2023-02-23T03:36:55.129Z,92.10
2023-02-23T03:40:15.906Z,92.40
2023-02-23T03:43:03.928Z,92.60
2023-02-23T03:45:49.886Z,93.00
2023-02-23T03:48:40.221Z,93.30
2023-02-23T03:51:28.015Z,92.90
2023-02-23T03:54:28.413Z,92.50
2023-02-23T03:57:18.015Z,92.50
2023-02-23T04:00:08.479Z,92.50
2023-02-23T04:03:00.956Z,92.30
2023-02-23T04:05:48.233Z,91.70
2023-02-23T04:08:37.690Z,91.80
2023-02-23T04:11:37.500Z,91.70
2023-02-23T04:14:05.466Z,91.90
2023-02-23T04:16:32.817Z,91.90
2023-02-23T04:18:59.913Z,92.20
2023-02-23T04:21:26.875Z,92.30
2023-02-23T04:23:53.804Z,92.70
2023-02-23T04:26:20.763Z,93.00
2023-02-23T04:28:47.689Z,93.40
2023-02-23T04:31:14.716Z,93.70
2023-02-23T04:33:41.670Z,93.80
2023-02-23T04:36:08.758Z,94.00
2023-02-23T04:38:35.720Z,94.40
2023-02-23T04:41:02.664Z,94.60
2023-02-23T04:43:29.645Z,94.80
2023-02-23T04:45:56.681Z,94.90
2023-02-23T04:48:25.211Z,94.90
2023-02-23T04:50:53.680Z,94.80
2023-02-23T04:53:20.735Z,94.80
2023-02-23T04:55:47.749Z,95.00
2023-02-23T04:58:14.706Z,95.10
2023-02-23T05:00:42.101Z,95.10
2023-02-23T05:03:09.734Z,94.90
2023-02-23T05:05:37.064Z,94.40
2023-02-23T05:08:04.084Z,94.00
2023-02-23T05:10:31.037Z,93.90
2023-02-23T05:12:58.291Z,93.90
2023-02-23T05:15:25.245Z,93.70
2023-02-23T05:17:52.198Z,93.70
2023-02-23T05:20:19.176Z,93.80
2023-02-23T05:22:46.232Z,93.80
2023-02-23T05:25:13.264Z,93.60
2023-02-23T05:27:40.717Z,93.70
2023-02-23T05:30:09.966Z,94.20
2023-02-23T05:32:37.167Z,95.00
2023-02-23T05:35:04.539Z,95.60
2023-02-23T05:37:31.539Z,96.50
2023-02-23T05:39:58.461Z,97.20
2023-02-23T05:42:25.556Z,97.80
2023-02-23T05:44:52.499Z,98.10
2023-02-23T05:47:19.460Z,98.20
2023-02-23T05:49:46.555Z,98.30
2023-02-23T05:52:13.657Z,98.40
2023-02-23T05:54:40.639Z,98.90
2023-02-23T05:57:08.398Z,99.30
2023-02-23T05:59:35.545Z,99.30
2023-02-23T06:02:04.875Z,99.50
2023-02-23T06:04:48.205Z,99.60
2023-02-23T06:07:15.979Z,99.80
2023-02-23T06:09:44.494Z,100.00
2023-02-23T06:12:11.662Z,100.00
2023-02-23T06:14:38.702Z,99.90
2023-02-23T06:17:05.833Z,99.60
2023-02-23T06:19:32.960Z,99.30
2023-02-23T06:22:00.128Z,99.10
2023-02-23T06:24:27.131Z,99.10
2023-02-23T06:26:54.241Z,99.00
2023-02-23T06:29:21.190Z,98.60
2023-02-23T06:31:48.385Z,98.50
2023-02-23T06:34:15.410Z,98.30
2023-02-23T06:36:43.140Z,97.90
2023-02-23T06:39:11.631Z,97.80
2023-02-23T06:41:38.638Z,97.80
2023-02-23T06:44:05.762Z,97.90
2023-02-23T06:46:33.807Z,98.00
2023-02-23T06:49:00.865Z,97.90
2023-02-23T06:51:27.870Z,98.00
2023-02-23T06:53:54.789Z,98.00
2023-02-23T06:56:22.079Z,97.90
2023-02-23T06:58:49.259Z,97.80
2023-02-23T07:01:17.135Z,97.70
2023-02-23T07:03:44.341Z,97.80
2023-02-23T07:06:11.314Z,97.90
2023-02-23T07:08:38.865Z,97.80
2023-02-23T07:12:04.359Z,97.90
2023-02-23T07:14:31.345Z,98.20
2023-02-23T07:16:58.408Z,98.40
2023-02-23T07:19:25.729Z,98.60
2023-02-23T07:21:53.134Z,98.70
2023-02-23T07:24:20.121Z,98.80
2023-02-23T07:26:49.377Z,99.00
2023-02-23T07:29:16.580Z,99.50
2023-02-23T07:31:43.763Z,99.90
2023-02-23T07:34:10.815Z,100.00
2023-02-23T07:36:38.198Z,100.00
2023-02-23T07:39:05.621Z,100.00
2023-02-23T07:41:32.857Z,100.00
2023-02-23T07:44:00.546Z,100.00
2023-02-23T07:46:27.487Z,100.00
2023-02-23T07:48:54.407Z,100.00
2023-02-23T07:51:21.672Z,100.00
2023-02-23T07:53:49.688Z,100.00
2023-02-23T07:56:16.690Z,100.00
2023-02-23T07:58:44.576Z,100.00
2023-02-23T08:01:12.897Z,100.00
2023-02-23T08:03:40.034Z,100.00
2023-02-23T08:06:07.569Z,100.00
2023-02-23T08:08:35.566Z,100.00
2023-02-23T08:11:05.049Z,100.00
2023-02-23T08:13:32.704Z,100.00
2023-02-23T08:15:59.889Z,100.00
2023-02-23T08:18:27.872Z,100.00
2023-02-23T08:21:02.213Z,100.00
2023-02-23T08:23:34.146Z,100.00
2023-02-23T08:26:02.333Z,100.00
2023-02-23T08:28:30.543Z,100.00
2023-02-23T08:30:59.349Z,100.00
2023-02-23T08:33:26.765Z,100.00
2023-02-23T08:35:53.925Z,100.00
2023-02-23T08:38:21.145Z,100.00
2023-02-23T08:40:48.111Z,100.00
2023-02-23T08:43:16.314Z,100.00
2023-02-23T08:45:43.343Z,100.00
2023-02-23T08:48:10.330Z,100.00
2023-02-23T08:50:37.289Z,100.00
2023-02-23T08:56:55.384Z,100.00
2023-02-23T08:59:22.460Z,100.00
2023-02-23T09:01:49.490Z,100.00
2023-02-23T09:04:16.927Z,100.00
2023-02-23T09:06:44.613Z,100.00
2023-02-23T09:09:11.498Z,100.00
2023-02-23T09:11:38.484Z,100.00
2023-02-23T09:15:12.295Z,100.00
2023-02-23T09:17:39.606Z,100.00
2023-02-23T09:20:07.338Z,100.00
2023-02-23T09:22:36.882Z,100.00
2023-02-23T09:25:05.057Z,100.00
2023-02-23T09:27:32.391Z,100.00
2023-02-23T09:29:59.368Z,100.00
2023-02-23T09:32:26.399Z,100.00
2023-02-23T09:34:53.511Z,100.00
2023-02-23T09:37:20.477Z,100.00
2023-02-23T09:39:48.901Z,100.00
2023-02-23T09:42:49.152Z,100.00
2023-02-23T09:45:36.779Z,100.00
2023-02-23T09:48:12.491Z,100.00
2023-02-23T09:50:42.187Z,100.00
2023-02-23T09:53:28.401Z,100.00
2023-02-23T09:55:58.392Z,100.00
2023-02-23T09:58:34.018Z,100.00
2023-02-23T10:01:18.253Z,100.00
2023-02-23T10:04:07.135Z,100.00
2023-02-23T10:06:34.885Z,99.50
2023-02-23T10:09:41.073Z,99.30
2023-02-23T10:12:11.915Z,99.20
2023-02-23T10:15:41.490Z,99.20
2023-02-23T10:18:46.419Z,98.90
2023-02-23T10:21:19.628Z,98.60
2023-02-23T10:23:53.719Z,98.30
2023-02-23T10:26:25.158Z,98.10
2023-02-23T10:29:33.385Z,97.60
2023-02-23T10:32:06.331Z,98.00
2023-02-23T10:34:33.927Z,97.50
2023-02-23T10:37:02.306Z,98.00
2023-02-23T10:39:31.087Z,98.10
2023-02-23T10:42:02.780Z,96.90
2023-02-23T10:44:29.965Z,96.60
2023-02-23T10:47:09.420Z,96.10
2023-02-23T10:49:45.597Z,96.30
2023-02-23T10:52:15.833Z,96.20
2023-02-23T10:54:48.900Z,95.60
2023-02-23T10:57:40.193Z,95.30
2023-02-23T11:00:17.046Z,95.60
2023-02-23T11:02:45.149Z,95.60
2023-02-23T11:05:35.162Z,95.40
2023-02-23T11:08:12.383Z,95.20
2023-02-23T11:10:39.690Z,94.50
2023-02-23T11:13:06.689Z,94.50
2023-02-23T11:15:50.607Z,94.40
2023-02-23T11:18:24.936Z,94.70
2023-02-23T11:20:52.798Z,95.60
2023-02-23T11:23:24.453Z,95.90
2023-02-23T11:25:57.073Z,95.90
2023-02-23T11:28:34.928Z,95.20
2023-02-23T11:31:08.865Z,95.60
2023-02-23T11:33:38.880Z,95.30
2023-02-23T11:36:20.654Z,94.60
2023-02-23T11:38:47.976Z,94.30
2023-02-23T11:41:24.256Z,93.90
2023-02-23T11:43:56.710Z,93.30
2023-02-23T11:46:25.887Z,93.40
2023-02-23T11:49:07.849Z,94.20
2023-02-23T11:51:38.362Z,92.80
2023-02-23T11:54:07.070Z,92.70
2023-02-23T11:56:35.633Z,92.80
2023-02-23T11:59:07.447Z,91.70
2023-02-23T12:01:41.864Z,91.40
2023-02-23T12:04:10.513Z,91.10
2023-02-23T12:06:41.431Z,89.80
2023-02-23T12:09:31.446Z,88.30
2023-02-23T12:12:21.907Z,86.20
2023-02-23T12:14:55.852Z,85.10
2023-02-23T12:17:37.051Z,84.90
2023-02-23T12:20:15.972Z,84.50
2023-02-23T12:22:57.966Z,84.00
2023-02-23T12:25:36.341Z,83.80
2023-02-23T12:28:18.509Z,84.30
2023-02-23T12:31:15.283Z,83.80
2023-02-23T12:33:46.401Z,83.70
2023-02-23T12:36:38.570Z,83.40
2023-02-23T12:39:21.473Z,83.30
2023-02-23T12:42:11.405Z,82.30
2023-02-23T12:45:11.493Z,82.80
2023-02-23T12:48:11.905Z,82.30
2023-02-23T12:50:40.780Z,80.80
2023-02-23T12:53:39.616Z,78.80
2023-02-23T12:56:33.461Z,78.60
2023-02-23T12:59:13.479Z,79.30
2023-02-23T13:02:04.747Z,80.20
2023-02-23T13:05:05.175Z,80.70
2023-02-23T13:07:34.876Z,80.10
2023-02-23T13:10:39.459Z,81.00
2023-02-23T13:13:18.454Z,80.40
2023-02-23T13:16:04.566Z,80.00
2023-02-23T13:19:08.956Z,80.00
2023-02-23T13:21:44.677Z,80.10
2023-02-23T13:24:19.288Z,80.40
2023-02-23T13:27:07.457Z,80.00
2023-02-23T13:29:36.849Z,79.90
2023-02-23T13:32:11.002Z,79.40
2023-02-23T13:35:03.248Z,79.50
2023-02-23T13:38:15.155Z,79.90
2023-02-23T13:41:14.359Z,78.70
2023-02-23T13:44:01.488Z,78.90
2023-02-23T13:46:57.955Z,78.00
2023-02-23T13:49:37.782Z,80.20
2023-02-23T13:52:42.045Z,82.30
2023-02-23T13:55:29.411Z,83.40
2023-02-23T13:58:25.844Z,83.70
2023-02-23T14:01:27.631Z,83.90
2023-02-23T14:03:57.897Z,83.70
2023-02-23T14:06:27.730Z,84.20
2023-02-23T14:08:59.147Z,83.50
2023-02-23T14:11:43.404Z,83.50
2023-02-23T14:14:37.190Z,83.40
2023-02-23T14:17:16.294Z,83.40
2023-02-23T14:20:06.831Z,83.50
2023-02-23T14:22:35.061Z,83.50
2023-02-23T14:25:33.265Z,82.80
2023-02-23T14:28:02.039Z,82.00
2023-02-23T14:30:43.318Z,81.30
2023-02-23T14:33:42.203Z,81.00
2023-02-23T14:36:24.414Z,80.60
2023-02-23T14:39:00.400Z,81.20
2023-02-23T14:41:50.204Z,80.60
2023-02-23T14:44:31.584Z,80.50
2023-02-23T14:47:15.753Z,80.40
2023-02-23T14:49:46.497Z,80.80
2023-02-23T14:52:28.333Z,80.60
2023-02-23T14:55:13.174Z,80.80
2023-02-23T14:57:41.916Z,80.10
2023-02-23T15:00:16.251Z,80.50
2023-02-23T15:03:05.229Z,80.50
2023-02-23T15:05:59.653Z,81.20
2023-02-23T15:08:29.929Z,81.80
2023-02-23T15:11:04.108Z,82.00
2023-02-23T15:16:07.695Z,81.70
2023-02-23T15:19:30.597Z,82.20
2023-02-23T15:21:59.546Z,82.40
2023-02-23T15:24:48.803Z,82.40
2023-02-23T15:27:25.849Z,82.20
2023-02-23T15:29:55.759Z,83.00
2023-02-23T15:32:25.574Z,84.00
2023-02-23T15:34:53.624Z,85.20
2023-02-23T15:37:34.065Z,86.00
2023-02-23T15:40:06.044Z,87.10
2023-02-23T15:42:41.438Z,87.50
2023-02-23T15:45:20.923Z,87.50
2023-02-23T15:47:48.702Z,88.20
2023-02-23T15:50:36.355Z,88.40
2023-02-23T15:53:13.761Z,88.50
2023-02-23T15:56:43.688Z,88.50
2023-02-23T15:59:16.508Z,88.30
2023-02-23T16:01:46.534Z,87.80
2023-02-23T16:04:13.488Z,86.90
2023-02-23T16:06:47.347Z,86.50
2023-02-23T16:09:26.269Z,86.30
2023-02-23T16:12:03.543Z,86.30
2023-02-23T16:14:42.602Z,86.30
2023-02-23T16:17:46.107Z,85.80
2023-02-23T16:20:41.528Z,85.30
2023-02-23T16:23:33.249Z,84.90
2023-02-23T16:26:11.969Z,84.80
2023-02-23T16:28:45.371Z,84.60
2023-02-23T16:31:14.144Z,84.50
2023-02-23T16:33:52.092Z,84.40
2023-02-23T16:36:22.638Z,84.20
2023-02-23T16:38:59.778Z,84.00
2023-02-23T16:41:32.082Z,83.90
2023-02-23T16:44:07.176Z,84.10
2023-02-23T16:46:54.226Z,84.40
2023-02-23T16:49:23.399Z,84.80
2023-02-23T16:51:51.551Z,85.00
2023-02-23T16:54:18.666Z,84.90
2023-02-23T16:56:47.356Z,84.60
2023-02-23T16:59:17.526Z,84.60
2023-02-23T17:01:50.058Z,84.40
2023-02-23T17:04:18.901Z,84.20
2023-02-23T17:06:48.470Z,84.20
2023-02-23T17:09:15.411Z,84.30
2023-02-23T17:11:47.290Z,84.50
2023-02-23T17:14:32.583Z,84.60
2023-02-23T17:17:02.269Z,84.50
2023-02-23T17:19:29.357Z,84.50
2023-02-23T17:21:56.342Z,84.50
2023-02-23T17:24:26.108Z,84.40
2023-02-23T17:26:53.344Z,84.60
2023-02-23T17:29:20.319Z,84.60
2023-02-23T17:31:47.485Z,84.60
2023-02-23T17:34:14.585Z,84.70
2023-02-23T17:36:41.542Z,84.80
2023-02-23T17:39:09.990Z,84.90
2023-02-23T17:41:37.050Z,84.90
2023-02-23T17:44:05.902Z,85.00
2023-02-23T17:46:33.075Z,85.10
2023-02-23T17:49:00.063Z,85.10
2023-02-23T17:51:27.134Z,85.40
2023-02-23T17:53:54.158Z,85.60
2023-02-23T17:56:21.227Z,85.80
2023-02-23T17:58:48.295Z,85.80
2023-02-23T18:01:16.120Z,85.80
2023-02-23T18:03:43.534Z,85.70
2023-02-23T18:06:13.131Z,85.60
2023-02-23T18:08:42.436Z,85.60
2023-02-23T18:11:10.227Z,85.70
2023-02-23T18:13:37.614Z,85.70
2023-02-23T18:16:10.699Z,85.70
2023-02-23T18:18:44.702Z,85.90
2023-02-23T18:21:14.478Z,86.00
2023-02-23T18:23:41.351Z,85.90
2023-02-23T18:26:14.617Z,85.90
2023-02-23T18:28:44.546Z,86.00
2023-02-23T18:31:38.083Z,86.20
2023-02-23T18:34:05.244Z,86.30
2023-02-23T18:36:38.303Z,86.50
2023-02-23T18:39:07.518Z,86.70
2023-02-23T18:41:34.993Z,87.10
2023-02-23T18:44:04.767Z,87.10
2023-02-23T18:46:32.021Z,87.30
2023-02-23T18:48:59.208Z,87.50
2023-02-23T18:51:26.366Z,87.60
2023-02-23T18:53:54.035Z,87.50
2023-02-23T18:56:25.168Z,87.40
2023-02-23T18:58:54.390Z,87.60
2023-02-23T19:01:27.119Z,87.50
2023-02-23T19:03:55.208Z,87.50
2023-02-23T19:06:23.844Z,87.60
2023-02-23T19:08:56.546Z,87.60
2023-02-23T19:11:30.857Z,87.90
2023-02-23T19:14:01.220Z,88.20
2023-02-23T19:16:31.323Z,88.60
2023-02-23T19:18:59.803Z,89.00
2023-02-23T19:21:27.784Z,89.40
2023-02-23T19:23:57.815Z,89.70
2023-02-23T19:26:26.221Z,89.90
2023-02-23T19:28:53.228Z,90.20
2023-02-23T19:31:22.859Z,90.30
2023-02-23T19:33:50.425Z,90.50
2023-02-23T19:36:20.302Z,90.40
2023-02-23T19:38:48.723Z,90.40
2023-02-23T19:41:19.727Z,90.30
2023-02-23T19:43:47.286Z,90.10
2023-02-23T19:46:17.355Z,89.90
2023-02-23T19:48:48.692Z,89.80
2023-02-23T19:51:15.731Z,89.60
2023-02-23T19:53:42.699Z,89.50
2023-02-23T19:56:13.798Z,89.50
2023-02-23T19:58:44.841Z,89.60
2023-02-23T20:01:16.869Z,90.00
2023-02-23T20:03:45.461Z,90.00
2023-02-23T20:06:13.903Z,90.10
2023-02-23T20:08:43.272Z,90.30
2023-02-23T20:11:10.853Z,90.50
2023-02-23T20:13:40.651Z,90.60
2023-02-23T20:16:13.968Z,90.80
2023-02-23T20:18:42.461Z,91.30
2023-02-23T20:21:12.958Z,91.70
2023-02-23T20:23:41.476Z,92.00
2023-02-23T20:26:12.426Z,92.30
2023-02-23T20:28:40.203Z,92.60
2023-02-23T20:31:26.623Z,93.00
2023-02-23T20:33:56.364Z,93.50
2023-02-23T20:36:24.845Z,94.00
2023-02-23T20:38:52.187Z,94.30
2023-02-23T20:41:20.500Z,94.30
2023-02-23T20:43:47.766Z,94.40
2023-02-23T20:46:17.093Z,94.20
2023-02-23T20:48:44.281Z,94.30
2023-02-23T20:51:14.991Z,94.00
2023-02-23T20:53:46.705Z,93.60
2023-02-23T20:56:16.875Z,93.30
2023-02-23T20:58:44.697Z,92.90
2023-02-23T21:01:21.335Z,92.50
2023-02-23T21:03:53.710Z,92.30
2023-02-23T21:06:23.312Z,92.50
2023-02-23T21:08:51.212Z,92.80
2023-02-23T21:11:22.140Z,93.40
2023-02-23T21:13:49.292Z,93.80
2023-02-23T21:16:18.019Z,93.80
2023-02-23T21:18:45.613Z,93.60
2023-02-23T21:21:15.744Z,93.20
2023-02-23T21:23:45.550Z,93.10
2023-02-23T21:26:16.032Z,93.10
2023-02-23T21:28:44.643Z,93.30
2023-02-23T21:31:13.275Z,94.00
2023-02-23T21:33:41.934Z,94.70
2023-02-23T21:36:10.617Z,95.20
2023-02-23T21:38:43.323Z,95.50
2023-02-23T21:41:12.409Z,95.70
2023-02-23T21:43:42.904Z,95.90
2023-02-23T21:46:12.934Z,96.30
2023-02-23T21:48:40.445Z,96.40
2023-02-23T21:51:11.617Z,96.70
2023-02-23T21:53:39.124Z,96.90
2023-02-23T21:56:22.547Z,96.80
2023-02-23T21:58:55.312Z,96.70
2023-02-23T22:01:28.659Z,96.40
2023-02-23T22:03:56.545Z,96.30
2023-02-23T22:06:25.921Z,96.50
2023-02-23T22:08:53.633Z,96.90
2023-02-23T22:11:24.920Z,97.30
2023-02-23T22:13:58.880Z,97.30
2023-02-23T22:16:32.300Z,97.60
2023-02-23T22:19:03.738Z,97.70
2023-02-23T22:21:35.049Z,97.70
2023-02-23T22:24:05.489Z,97.20
2023-02-23T22:26:39.036Z,96.70
2023-02-23T22:29:06.939Z,96.10
2023-02-23T22:31:34.231Z,95.60
2023-02-23T22:34:01.408Z,95.60
2023-02-23T22:36:32.651Z,95.30
2023-02-23T22:39:00.838Z,95.40
2023-02-23T22:41:29.691Z,95.40
2023-02-23T22:43:57.803Z,95.80
2023-02-23T22:46:26.072Z,96.10
2023-02-23T22:48:53.105Z,96.20
2023-02-23T22:51:20.870Z,96.30
2023-02-23T22:53:48.159Z,96.30
2023-02-23T22:56:15.157Z,96.40
2023-02-23T22:58:43.071Z,96.30
2023-02-23T23:01:12.351Z,95.90
2023-02-23T23:03:47.764Z,95.50
2023-02-23T23:06:23.078Z,95.30
2023-02-23T23:08:52.472Z,95.40
2023-02-23T23:11:22.589Z,95.40
2023-02-23T23:13:52.005Z,95.40
2023-02-23T23:16:48.587Z,95.40
2023-02-23T23:20:11.929Z,95.50
2023-02-23T23:23:35.430Z,95.60
2023-02-23T23:26:02.385Z,95.20
2023-02-23T23:28:29.316Z,95.30
2023-02-23T23:30:56.312Z,95.20
2023-02-23T23:33:27.041Z,95.30
2023-02-23T23:35:53.997Z,95.00
2023-02-23T23:38:21.279Z,94.70
2023-02-23T23:40:48.187Z,94.40
2023-02-23T23:43:15.234Z,94.40
2023-02-23T23:45:44.040Z,94.80
2023-02-23T23:49:20.648Z,94.80
2023-02-23T23:51:50.554Z,94.70
2023-02-23T23:54:21.662Z,94.40
2023-02-23T23:56:49.750Z,94.40
2023-02-23T23:59:21.414Z,94.30
